Sunday, December 16, 2018, 3:31 AM GMT
Back to Local

CYQM, Moncton, N. B.

Location: , , Canada Lat: 46.117
Local Time: 3:31 AM GMT ( 3:31 GMT) Lon: -64.683
Time Zone: GMT Elev: 232 ft

Show me the last for .
Show Decoded

2018-12-16 03:00 METAR CYQM 160300Z 23009KT 15SM SKC M00/M03 A3015 RMK SLP214 =
2018-12-16 02:00 METAR CYQM 160200Z 25005KT 15SM FEW040 SCT260 00/M03 A3013 RMK SC2CI1 SLP209 =
2018-12-16 01:00 METAR CYQM 160100Z 26008KT 15SM SCT040 02/M02 A3013 RMK SC3 SLP207 =
2018-12-16 00:00 METAR CYQM 160000Z 26009KT 15SM BKN040 02/M01 A3011 RMK SC6 SLP202 =
2018-12-15 23:00 METAR CYQM 152300Z 28012KT 15SM BKN037 02/M02 A3010 RMK SC7 SLP197 =
2018-12-15 22:00 METAR CYQM 152200Z 27010KT 15SM FEW044 02/M01 A3008 RMK SC2 SLP190 =
2018-12-15 21:51 METAR CYQM 152151Z 27009KT 15SM SCT044 02/M02 A3007 RMK SC3 SLP189 =
2018-12-15 21:00 METAR CYQM 152100Z 27008KT 15SM BKN042 03/M01 A3006 RMK SC7 SLP183 =
2018-12-15 20:00 METAR CYQM 152000Z 28013KT 15SM FEW030 BKN060 03/M01 A3001 RMK CU1SC4 SLP168 =
2018-12-15 19:00 METAR CYQM 151900Z 27012G22KT 15SM SCT025 BKN053 04/M01 A2998 RMK CU3SC4 SLP157
                 =
2018-12-15 18:00 METAR CYQM 151800Z 27011G18KT 15SM SCT025 BKN053 04/M00 A2995 RMK CU3SC4 SLP147
                 =
2018-12-15 17:00 METAR CYQM 151700Z 27011KT 15SM BKN025 BKN045 04/01 A2995 RMK CU7SC1 SC TR
                 SLP145 =
2018-12-15 16:00 METAR CYQM 151600Z 26013G21KT 15SM BKN016 04/01 A2995 RMK CU7 SLP148 =
2018-12-15 15:00 METAR CYQM 151500Z 25013KT 15SM BKN012 BKN035 04/02 A2997 RMK CU5SC1 SC TR
                 SLP152 =
2018-12-15 14:17 METAR CYQM 151417Z 24012KT 15SM BKN012 BKN035 03/02 A2997 RMK CU5SC1 SLP152 =
2018-12-15 14:00 METAR CYQM 151400Z 24012KT 15SM SCT010 BKN035 03/02 A2996 RMK CF4SC2 SLP151 =
2018-12-15 13:00 METAR CYQM 151300Z 26012G17KT 15SM SCT007 OVC023 03/02 A2997 RMK SF4SC4 SLP153 =
2018-12-15 12:00 METAR CYQM 151200Z 24010KT 15SM BKN005 BKN010 OVC036 02/02 A2995 RMK SF6SF1SC1
                 SLP146 =
2018-12-15 11:43 METAR CYQM 151143Z 23010KT 15SM BKN006 BKN011 OVC036 02/02 A2994 RMK SF5SF2SC1
                 SLP143 =
2018-12-15 11:34 METAR CYQM 151134Z 23010KT 15SM FEW008 BKN012 OVC036 02/02 A2994 RMK SF2SF4SC2
                 SLP143 =
2018-12-15 11:22 METAR CYQM 151122Z 23009KT 15SM -RA SCT008 BKN012 OVC035 02/02 A2994 RMK
                 SF3SC3SC2 SLP143 =
2018-12-15 11:20 METAR CYQM 151120Z 23009KT 15SM -RA SCT008 BKN012 OVC035 03/02 A2994 RMK
                 SF4SC2SC2 SLP143 =
2018-12-15 11:00 METAR CYQM 151100Z 24011KT 15SM -RA BKN008 OVC010 03/02 A2995 RMK ST6SF2 SLP148
                 =
2018-12-15 10:00 METAR CYQM 151000Z 24010KT 15SM -RA BKN007 OVC010 03/02 A2996 RMK SF7SF1 SLP151
                 =
2018-12-15 09:10 METAR CYQM 150910Z 20007KT 15SM -RA OVC007 02/02 A2996 RMK SF8 SLP152 =
2018-12-15 09:00 METAR CYQM 150900Z 19007KT 15SM -RA OVC008 03/02 A2997 RMK SF8 PRESFR SLP153 =
2018-12-15 08:00 METAR CYQM 150800Z 20009KT 15SM -RA OVC011 03/02 A2999 RMK SC8 SLP162 =
2018-12-15 07:00 METAR CYQM 150700Z 20008KT 15SM -RA OVC017 03/01 A3003 RMK SC8 SLP174 =
2018-12-15 06:00 METAR CYQM 150600Z 19008KT 15SM -RA FEW020 OVC035 03/00 A3006 RMK SC1SC7 SLP185
                 =
2018-12-15 05:49 METAR CYQM 150549Z 21009KT 15SM -RA FEW020 OVC035 03/00 A3007 RMK SC2SC6 SLP188
                 =
2018-12-15 05:00 METAR CYQM 150500Z 20014KT 15SM FEW018 OVC039 03/00 A3009 RMK SC2SC6 SLP193 =
2018-12-15 04:00 METAR CYQM 150400Z 20012KT 15SM OVC047 03/00 A3012 RMK SC8 PRESFR SLP203 =

Support USWX by starting your Amazon purchase here.